sensor_id;sensor_type;location;lat;lon;timestamp;P1;durP1;ratioP1;P2;durP2;ratioP2
58528;SDS011;44322;52.968;5.816;2022-11-15T00:00:14;29.85;;;18.10;;
58528;SDS011;44322;52.968;5.816;2022-11-15T00:02:58;29.65;;;18.60;;
58528;SDS011;44322;52.968;5.816;2022-11-15T00:05:43;28.98;;;18.77;;
58528;SDS011;44322;52.968;5.816;2022-11-15T00:08:31;31.52;;;19.25;;
58528;SDS011;44322;52.968;5.816;2022-11-15T00:11:16;32.70;;;19.30;;
58528;SDS011;44322;52.968;5.816;2022-11-15T00:14:01;33.67;;;20.10;;
58528;SDS011;44322;52.968;5.816;2022-11-15T00:16:46;31.23;;;19.92;;
58528;SDS011;44322;52.968;5.816;2022-11-15T00:19:30;30.40;;;19.23;;
58528;SDS011;44322;52.968;5.816;2022-11-15T00:22:15;33.03;;;19.35;;
58528;SDS011;44322;52.968;5.816;2022-11-15T00:25:00;34.78;;;20.13;;
58528;SDS011;44322;52.968;5.816;2022-11-15T00:27:44;31.20;;;19.25;;
58528;SDS011;44322;52.968;5.816;2022-11-15T00:30:29;31.77;;;20.65;;
58528;SDS011;44322;52.968;5.816;2022-11-15T00:33:14;30.92;;;19.27;;
58528;SDS011;44322;52.968;5.816;2022-11-15T00:36:02;34.22;;;20.85;;
58528;SDS011;44322;52.968;5.816;2022-11-15T00:38:48;33.13;;;20.55;;
58528;SDS011;44322;52.968;5.816;2022-11-15T00:41:37;38.10;;;21.63;;
58528;SDS011;44322;52.968;5.816;2022-11-15T00:44:22;36.95;;;22.70;;
58528;SDS011;44322;52.968;5.816;2022-11-15T00:47:06;39.38;;;23.45;;
58528;SDS011;44322;52.968;5.816;2022-11-15T00:49:51;40.65;;;23.92;;
58528;SDS011;44322;52.968;5.816;2022-11-15T00:52:35;40.33;;;23.52;;
58528;SDS011;44322;52.968;5.816;2022-11-15T00:55:20;38.10;;;22.52;;
58528;SDS011;44322;52.968;5.816;2022-11-15T00:58:04;40.40;;;22.52;;
58528;SDS011;44322;52.968;5.816;2022-11-15T01:00:49;43.08;;;24.48;;
58528;SDS011;44322;52.968;5.816;2022-11-15T01:03:34;41.35;;;23.77;;
58528;SDS011;44322;52.968;5.816;2022-11-15T01:06:19;43.53;;;24.23;;
58528;SDS011;44322;52.968;5.816;2022-11-15T01:09:04;40.72;;;23.27;;
58528;SDS011;44322;52.968;5.816;2022-11-15T01:11:48;41.05;;;22.52;;
58528;SDS011;44322;52.968;5.816;2022-11-15T01:14:33;43.58;;;24.50;;
58528;SDS011;44322;52.968;5.816;2022-11-15T01:17:17;42.45;;;22.33;;
58528;SDS011;44322;52.968;5.816;2022-11-15T01:20:02;42.72;;;24.33;;
58528;SDS011;44322;52.968;5.816;2022-11-15T01:22:48;40.75;;;23.10;;
58528;SDS011;44322;52.968;5.816;2022-11-15T01:25:35;41.50;;;23.70;;
58528;SDS011;44322;52.968;5.816;2022-11-15T01:28:20;42.45;;;23.40;;
58528;SDS011;44322;52.968;5.816;2022-11-15T01:31:06;44.83;;;24.25;;
58528;SDS011;44322;52.968;5.816;2022-11-15T01:34:01;40.28;;;22.33;;
58528;SDS011;44322;52.968;5.816;2022-11-15T01:36:45;42.72;;;23.63;;
58528;SDS011;44322;52.968;5.816;2022-11-15T01:39:30;40.03;;;21.85;;
58528;SDS011;44322;52.968;5.816;2022-11-15T01:42:14;43.72;;;23.60;;
58528;SDS011;44322;52.968;5.816;2022-11-15T01:44:59;42.22;;;24.20;;
58528;SDS011;44322;52.968;5.816;2022-11-15T01:47:45;42.47;;;21.58;;
58528;SDS011;44322;52.968;5.816;2022-11-15T01:50:36;40.05;;;22.63;;
58528;SDS011;44322;52.968;5.816;2022-11-15T01:53:21;39.55;;;22.17;;
58528;SDS011;44322;52.968;5.816;2022-11-15T01:56:09;36.75;;;21.85;;
58528;SDS011;44322;52.968;5.816;2022-11-15T01:58:57;37.80;;;22.08;;
58528;SDS011;44322;52.968;5.816;2022-11-15T02:01:44;40.83;;;21.38;;
58528;SDS011;44322;52.968;5.816;2022-11-15T02:04:31;38.47;;;21.02;;
58528;SDS011;44322;52.968;5.816;2022-11-15T02:07:18;42.60;;;22.45;;
58528;SDS011;44322;52.968;5.816;2022-11-15T02:10:07;40.85;;;22.75;;
58528;SDS011;44322;52.968;5.816;2022-11-15T02:12:54;40.92;;;22.35;;
58528;SDS011;44322;52.968;5.816;2022-11-15T02:19:20;44.95;;;23.45;;
58528;SDS011;44322;52.968;5.816;2022-11-15T02:25:24;49.15;;;23.40;;
58528;SDS011;44322;52.968;5.816;2022-11-15T02:28:38;44.25;;;22.88;;
58528;SDS011;44322;52.968;5.816;2022-11-15T02:37:46;48.45;;;24.08;;
58528;SDS011;44322;52.968;5.816;2022-11-15T02:40:48;50.20;;;24.63;;
58528;SDS011;44322;52.968;5.816;2022-11-15T02:43:45;52.13;;;25.65;;
58528;SDS011;44322;52.968;5.816;2022-11-15T02:46:52;51.10;;;24.25;;
58528;SDS011;44322;52.968;5.816;2022-11-15T02:52:50;56.20;;;25.13;;
58528;SDS011;44322;52.968;5.816;2022-11-15T02:55:36;57.33;;;26.30;;
58528;SDS011;44322;52.968;5.816;2022-11-15T03:07:38;58.97;;;26.30;;
58528;SDS011;44322;52.968;5.816;2022-11-15T03:13:56;55.55;;;24.42;;
58528;SDS011;44322;52.968;5.816;2022-11-15T03:19:28;62.78;;;26.30;;
58528;SDS011;44322;52.968;5.816;2022-11-15T03:25:10;60.17;;;25.90;;
58528;SDS011;44322;52.968;5.816;2022-11-15T03:28:01;62.53;;;26.52;;
58528;SDS011;44322;52.968;5.816;2022-11-15T03:30:49;68.75;;;27.15;;
58528;SDS011;44322;52.968;5.816;2022-11-15T03:33:35;68.35;;;28.05;;
58528;SDS011;44322;52.968;5.816;2022-11-15T03:36:20;61.92;;;26.90;;
58528;SDS011;44322;52.968;5.816;2022-11-15T03:39:07;62.30;;;25.75;;
58528;SDS011;44322;52.968;5.816;2022-11-15T03:45:17;60.50;;;26.00;;
58528;SDS011;44322;52.968;5.816;2022-11-15T03:48:10;54.10;;;24.00;;
58528;SDS011;44322;52.968;5.816;2022-11-15T03:50:58;59.88;;;25.30;;
58528;SDS011;44322;52.968;5.816;2022-11-15T03:53:43;58.78;;;23.50;;
58528;SDS011;44322;52.968;5.816;2022-11-15T03:56:27;61.50;;;25.08;;
58528;SDS011;44322;52.968;5.816;2022-11-15T03:59:12;54.97;;;25.25;;
58528;SDS011;44322;52.968;5.816;2022-11-15T04:01:56;55.85;;;25.17;;
58528;SDS011;44322;52.968;5.816;2022-11-15T04:04:41;60.65;;;25.48;;
58528;SDS011;44322;52.968;5.816;2022-11-15T04:07:25;58.03;;;24.45;;
58528;SDS011;44322;52.968;5.816;2022-11-15T04:10:10;59.50;;;24.55;;
58528;SDS011;44322;52.968;5.816;2022-11-15T04:12:56;63.85;;;26.17;;
58528;SDS011;44322;52.968;5.816;2022-11-15T04:15:40;58.88;;;24.40;;
58528;SDS011;44322;52.968;5.816;2022-11-15T04:18:24;54.30;;;23.23;;
58528;SDS011;44322;52.968;5.816;2022-11-15T04:21:09;56.88;;;25.17;;
58528;SDS011;44322;52.968;5.816;2022-11-15T04:24:12;61.17;;;25.75;;
58528;SDS011;44322;52.968;5.816;2022-11-15T04:26:57;58.47;;;24.80;;
58528;SDS011;44322;52.968;5.816;2022-11-15T04:29:42;55.63;;;25.00;;
58528;SDS011;44322;52.968;5.816;2022-11-15T04:32:26;65.55;;;25.38;;
58528;SDS011;44322;52.968;5.816;2022-11-15T04:35:10;59.22;;;26.35;;
58528;SDS011;44322;52.968;5.816;2022-11-15T04:37:55;62.15;;;24.35;;
58528;SDS011;44322;52.968;5.816;2022-11-15T04:40:40;70.80;;;27.13;;
58528;SDS011;44322;52.968;5.816;2022-11-15T04:43:24;67.53;;;27.98;;
58528;SDS011;44322;52.968;5.816;2022-11-15T04:46:09;66.85;;;26.63;;
58528;SDS011;44322;52.968;5.816;2022-11-15T04:48:54;63.17;;;27.55;;
58528;SDS011;44322;52.968;5.816;2022-11-15T04:51:38;80.97;;;31.10;;
58528;SDS011;44322;52.968;5.816;2022-11-15T04:54:23;67.43;;;27.30;;
58528;SDS011;44322;52.968;5.816;2022-11-15T04:57:07;78.85;;;29.45;;
58528;SDS011;44322;52.968;5.816;2022-11-15T04:59:52;82.40;;;30.90;;
58528;SDS011;44322;52.968;5.816;2022-11-15T05:02:36;81.65;;;30.23;;
58528;SDS011;44322;52.968;5.816;2022-11-15T05:05:39;73.68;;;29.15;;
58528;SDS011;44322;52.968;5.816;2022-11-15T05:08:24;80.65;;;30.50;;
58528;SDS011;44322;52.968;5.816;2022-11-15T05:11:09;88.30;;;31.17;;
58528;SDS011;44322;52.968;5.816;2022-11-15T05:13:54;83.90;;;31.77;;
58528;SDS011;44322;52.968;5.816;2022-11-15T05:16:38;83.82;;;30.85;;
58528;SDS011;44322;52.968;5.816;2022-11-15T05:19:23;83.75;;;32.13;;
58528;SDS011;44322;52.968;5.816;2022-11-15T05:22:08;92.88;;;33.50;;
58528;SDS011;44322;52.968;5.816;2022-11-15T05:24:52;89.22;;;32.58;;
58528;SDS011;44322;52.968;5.816;2022-11-15T05:27:37;87.13;;;31.38;;
58528;SDS011;44322;52.968;5.816;2022-11-15T05:30:21;85.78;;;33.05;;
58528;SDS011;44322;52.968;5.816;2022-11-15T05:33:06;79.55;;;32.35;;
58528;SDS011;44322;52.968;5.816;2022-11-15T05:35:50;94.90;;;34.42;;
58528;SDS011;44322;52.968;5.816;2022-11-15T05:38:41;85.43;;;33.33;;
58528;SDS011;44322;52.968;5.816;2022-11-15T05:41:48;87.10;;;32.65;;
58528;SDS011;44322;52.968;5.816;2022-11-15T05:44:38;84.07;;;31.42;;
58528;SDS011;44322;52.968;5.816;2022-11-15T05:47:28;87.72;;;32.63;;
58528;SDS011;44322;52.968;5.816;2022-11-15T05:50:14;86.78;;;33.72;;
58528;SDS011;44322;52.968;5.816;2022-11-15T05:53:01;73.88;;;30.50;;
58528;SDS011;44322;52.968;5.816;2022-11-15T05:55:46;74.95;;;31.10;;
58528;SDS011;44322;52.968;5.816;2022-11-15T05:58:31;87.05;;;34.33;;
58528;SDS011;44322;52.968;5.816;2022-11-15T06:01:16;81.40;;;32.47;;
58528;SDS011;44322;52.968;5.816;2022-11-15T06:07:11;86.18;;;32.72;;
58528;SDS011;44322;52.968;5.816;2022-11-15T06:09:57;85.63;;;33.00;;
58528;SDS011;44322;52.968;5.816;2022-11-15T06:12:56;86.03;;;33.63;;
58528;SDS011;44322;52.968;5.816;2022-11-15T06:16:49;89.30;;;34.15;;
58528;SDS011;44322;52.968;5.816;2022-11-15T06:20:59;90.75;;;34.28;;
58528;SDS011;44322;52.968;5.816;2022-11-15T06:24:29;95.77;;;35.10;;
58528;SDS011;44322;52.968;5.816;2022-11-15T06:45:23;106.05;;;36.92;;
58528;SDS011;44322;52.968;5.816;2022-11-15T06:48:07;106.00;;;38.65;;
58528;SDS011;44322;52.968;5.816;2022-11-15T06:50:52;89.75;;;34.67;;
58528;SDS011;44322;52.968;5.816;2022-11-15T06:53:36;104.97;;;37.35;;
58528;SDS011;44322;52.968;5.816;2022-11-15T06:56:21;95.85;;;38.00;;
58528;SDS011;44322;52.968;5.816;2022-11-15T06:59:05;96.63;;;37.95;;
58528;SDS011;44322;52.968;5.816;2022-11-15T07:01:49;96.20;;;38.38;;
58528;SDS011;44322;52.968;5.816;2022-11-15T07:04:34;99.47;;;39.28;;
58528;SDS011;44322;52.968;5.816;2022-11-15T07:07:20;102.40;;;39.33;;
58528;SDS011;44322;52.968;5.816;2022-11-15T07:10:04;94.65;;;37.08;;
58528;SDS011;44322;52.968;5.816;2022-11-15T07:12:53;87.13;;;34.15;;
58528;SDS011;44322;52.968;5.816;2022-11-15T07:15:38;89.07;;;35.50;;
58528;SDS011;44322;52.968;5.816;2022-11-15T07:18:23;96.30;;;36.95;;
58528;SDS011;44322;52.968;5.816;2022-11-15T07:23:55;88.40;;;35.28;;
58528;SDS011;44322;52.968;5.816;2022-11-15T07:26:40;86.80;;;34.83;;
58528;SDS011;44322;52.968;5.816;2022-11-15T07:29:24;72.18;;;33.35;;
58528;SDS011;44322;52.968;5.816;2022-11-15T07:32:09;70.82;;;32.63;;
58528;SDS011;44322;52.968;5.816;2022-11-15T07:34:54;72.25;;;31.80;;
58528;SDS011;44322;52.968;5.816;2022-11-15T07:37:38;75.90;;;33.60;;
58528;SDS011;44322;52.968;5.816;2022-11-15T07:40:23;69.15;;;33.38;;
58528;SDS011;44322;52.968;5.816;2022-11-15T07:43:08;72.15;;;32.45;;
58528;SDS011;44322;52.968;5.816;2022-11-15T07:45:53;70.57;;;31.38;;
58528;SDS011;44322;52.968;5.816;2022-11-15T07:48:38;63.80;;;31.98;;
58528;SDS011;44322;52.968;5.816;2022-11-15T07:51:23;68.75;;;31.77;;
58528;SDS011;44322;52.968;5.816;2022-11-15T07:54:08;67.47;;;32.00;;
58528;SDS011;44322;52.968;5.816;2022-11-15T07:56:52;62.55;;;30.90;;
58528;SDS011;44322;52.968;5.816;2022-11-15T07:59:37;65.53;;;31.13;;
58528;SDS011;44322;52.968;5.816;2022-11-15T08:02:22;64.93;;;29.52;;
58528;SDS011;44322;52.968;5.816;2022-11-15T08:05:06;62.80;;;31.25;;
58528;SDS011;44322;52.968;5.816;2022-11-15T08:07:51;64.63;;;30.13;;
58528;SDS011;44322;52.968;5.816;2022-11-15T08:10:35;62.78;;;30.80;;
58528;SDS011;44322;52.968;5.816;2022-11-15T08:13:20;62.03;;;30.30;;
58528;SDS011;44322;52.968;5.816;2022-11-15T08:16:05;58.20;;;29.58;;
58528;SDS011;44322;52.968;5.816;2022-11-15T08:18:49;60.67;;;30.23;;
58528;SDS011;44322;52.968;5.816;2022-11-15T08:21:34;59.65;;;28.77;;
58528;SDS011;44322;52.968;5.816;2022-11-15T08:24:18;52.45;;;28.88;;
58528;SDS011;44322;52.968;5.816;2022-11-15T08:27:04;55.70;;;27.88;;
58528;SDS011;44322;52.968;5.816;2022-11-15T08:29:48;56.40;;;28.75;;
58528;SDS011;44322;52.968;5.816;2022-11-15T08:32:34;56.80;;;29.08;;
58528;SDS011;44322;52.968;5.816;2022-11-15T08:35:18;54.47;;;28.40;;
58528;SDS011;44322;52.968;5.816;2022-11-15T08:38:03;55.20;;;29.00;;
58528;SDS011;44322;52.968;5.816;2022-11-15T08:40:48;53.05;;;28.80;;
58528;SDS011;44322;52.968;5.816;2022-11-15T08:43:34;52.47;;;28.45;;
58528;SDS011;44322;52.968;5.816;2022-11-15T08:46:18;52.95;;;29.58;;
58528;SDS011;44322;52.968;5.816;2022-11-15T08:49:03;54.53;;;27.17;;
58528;SDS011;44322;52.968;5.816;2022-11-15T08:51:47;52.42;;;28.27;;
58528;SDS011;44322;52.968;5.816;2022-11-15T08:54:32;55.33;;;27.45;;
58528;SDS011;44322;52.968;5.816;2022-11-15T08:57:16;50.45;;;27.48;;
58528;SDS011;44322;52.968;5.816;2022-11-15T09:00:01;51.80;;;26.50;;
58528;SDS011;44322;52.968;5.816;2022-11-15T09:02:45;49.05;;;27.48;;
58528;SDS011;44322;52.968;5.816;2022-11-15T09:05:30;48.53;;;27.15;;
58528;SDS011;44322;52.968;5.816;2022-11-15T09:08:14;43.08;;;25.10;;
58528;SDS011;44322;52.968;5.816;2022-11-15T09:11:02;49.00;;;25.73;;
58528;SDS011;44322;52.968;5.816;2022-11-15T09:13:47;44.83;;;24.38;;
58528;SDS011;44322;52.968;5.816;2022-11-15T09:16:32;46.65;;;26.05;;
58528;SDS011;44322;52.968;5.816;2022-11-15T09:19:17;47.67;;;26.63;;
58528;SDS011;44322;52.968;5.816;2022-11-15T09:22:01;47.13;;;24.77;;
58528;SDS011;44322;52.968;5.816;2022-11-15T09:24:49;48.55;;;26.40;;
58528;SDS011;44322;52.968;5.816;2022-11-15T09:27:33;46.22;;;26.13;;
58528;SDS011;44322;52.968;5.816;2022-11-15T09:30:18;44.72;;;25.52;;
58528;SDS011;44322;52.968;5.816;2022-11-15T09:33:07;45.22;;;26.35;;
58528;SDS011;44322;52.968;5.816;2022-11-15T09:35:52;45.35;;;25.25;;
58528;SDS011;44322;52.968;5.816;2022-11-15T09:38:37;42.00;;;24.60;;
58528;SDS011;44322;52.968;5.816;2022-11-15T09:41:40;50.20;;;26.08;;
58528;SDS011;44322;52.968;5.816;2022-11-15T09:44:46;48.63;;;26.20;;
58528;SDS011;44322;52.968;5.816;2022-11-15T09:53:09;41.58;;;24.08;;
58528;SDS011;44322;52.968;5.816;2022-11-15T09:55:42;45.50;;;24.63;;
58528;SDS011;44322;52.968;5.816;2022-11-15T10:01:12;44.60;;;25.30;;
58528;SDS011;44322;52.968;5.816;2022-11-15T10:03:42;41.05;;;23.45;;
58528;SDS011;44322;52.968;5.816;2022-11-15T10:06:23;41.63;;;23.50;;
58528;SDS011;44322;52.968;5.816;2022-11-15T10:08:55;40.92;;;22.25;;
58528;SDS011;44322;52.968;5.816;2022-11-15T10:11:31;38.30;;;24.50;;
58528;SDS011;44322;52.968;5.816;2022-11-15T10:14:10;36.60;;;21.23;;
58528;SDS011;44322;52.968;5.816;2022-11-15T10:22:21;36.15;;;21.60;;
58528;SDS011;44322;52.968;5.816;2022-11-15T10:25:16;37.20;;;21.70;;
58528;SDS011;44322;52.968;5.816;2022-11-15T10:27:42;37.92;;;22.35;;
58528;SDS011;44322;52.968;5.816;2022-11-15T10:30:19;40.65;;;23.15;;
58528;SDS011;44322;52.968;5.816;2022-11-15T10:32:45;41.10;;;23.08;;
58528;SDS011;44322;52.968;5.816;2022-11-15T10:35:16;31.48;;;20.27;;
58528;SDS011;44322;52.968;5.816;2022-11-15T10:37:51;33.83;;;21.40;;
58528;SDS011;44322;52.968;5.816;2022-11-15T10:40:29;31.73;;;20.48;;
58528;SDS011;44322;52.968;5.816;2022-11-15T10:45:40;36.85;;;21.83;;
58528;SDS011;44322;52.968;5.816;2022-11-15T10:50:39;31.40;;;20.13;;
58528;SDS011;44322;52.968;5.816;2022-11-15T10:56:07;30.02;;;18.92;;
58528;SDS011;44322;52.968;5.816;2022-11-15T10:58:42;27.30;;;17.58;;
58528;SDS011;44322;52.968;5.816;2022-11-15T11:01:23;31.77;;;17.63;;
58528;SDS011;44322;52.968;5.816;2022-11-15T11:12:32;27.50;;;16.83;;
58528;SDS011;44322;52.968;5.816;2022-11-15T11:15:00;25.90;;;16.48;;
58528;SDS011;44322;52.968;5.816;2022-11-15T11:20:49;21.83;;;14.18;;
58528;SDS011;44322;52.968;5.816;2022-11-15T11:23:47;24.77;;;15.35;;
58528;SDS011;44322;52.968;5.816;2022-11-15T11:29:24;22.85;;;15.50;;
58528;SDS011;44322;52.968;5.816;2022-11-15T11:37:50;23.42;;;15.68;;
58528;SDS011;44322;52.968;5.816;2022-11-15T11:40:37;23.38;;;15.25;;
58528;SDS011;44322;52.968;5.816;2022-11-15T11:51:34;21.98;;;14.88;;
58528;SDS011;44322;52.968;5.816;2022-11-15T11:54:17;22.88;;;14.32;;
58528;SDS011;44322;52.968;5.816;2022-11-15T11:56:47;20.35;;;13.75;;
58528;SDS011;44322;52.968;5.816;2022-11-15T11:59:50;17.73;;;13.02;;
58528;SDS011;44322;52.968;5.816;2022-11-15T12:02:42;18.15;;;12.55;;
58528;SDS011;44322;52.968;5.816;2022-11-15T12:08:16;16.92;;;10.50;;
58528;SDS011;44322;52.968;5.816;2022-11-15T12:10:57;8.60;;;6.82;;
58528;SDS011;44322;52.968;5.816;2022-11-15T12:13:40;9.40;;;5.55;;
58528;SDS011;44322;52.968;5.816;2022-11-15T12:18:46;6.22;;;4.53;;
58528;SDS011;44322;52.968;5.816;2022-11-15T12:23:50;7.32;;;5.45;;
58528;SDS011;44322;52.968;5.816;2022-11-15T12:26:24;8.02;;;5.63;;
58528;SDS011;44322;52.968;5.816;2022-11-15T12:28:54;8.50;;;4.97;;
58528;SDS011;44322;52.968;5.816;2022-11-15T12:31:43;7.45;;;5.32;;
58528;SDS011;44322;52.968;5.816;2022-11-15T12:36:46;7.25;;;4.30;;
58528;SDS011;44322;52.968;5.816;2022-11-15T12:39:13;8.88;;;4.55;;
58528;SDS011;44322;52.968;5.816;2022-11-15T12:47:04;6.40;;;4.70;;
58528;SDS011;44322;52.968;5.816;2022-11-15T12:49:48;6.35;;;4.80;;
58528;SDS011;44322;52.968;5.816;2022-11-15T12:52:14;7.22;;;4.28;;
58528;SDS011;44322;52.968;5.816;2022-11-15T12:57:31;6.85;;;4.43;;
58528;SDS011;44322;52.968;5.816;2022-11-15T13:00:00;5.97;;;4.35;;
58528;SDS011;44322;52.968;5.816;2022-11-15T13:02:47;6.45;;;4.50;;
58528;SDS011;44322;52.968;5.816;2022-11-15T13:25:18;4.45;;;4.00;;
58528;SDS011;44322;52.968;5.816;2022-11-15T13:30:35;4.82;;;4.32;;
58528;SDS011;44322;52.968;5.816;2022-11-15T13:33:07;5.18;;;4.15;;
58528;SDS011;44322;52.968;5.816;2022-11-15T13:35:41;6.50;;;4.38;;
58528;SDS011;44322;52.968;5.816;2022-11-15T13:38:33;5.25;;;4.10;;
58528;SDS011;44322;52.968;5.816;2022-11-15T13:41:21;4.75;;;4.10;;
58528;SDS011;44322;52.968;5.816;2022-11-15T13:43:49;4.85;;;3.85;;
58528;SDS011;44322;52.968;5.816;2022-11-15T13:51:24;5.37;;;3.43;;
58528;SDS011;44322;52.968;5.816;2022-11-15T13:54:07;4.32;;;3.53;;
58528;SDS011;44322;52.968;5.816;2022-11-15T13:56:41;3.78;;;3.42;;
58528;SDS011;44322;52.968;5.816;2022-11-15T13:59:10;4.68;;;3.40;;
58528;SDS011;44322;52.968;5.816;2022-11-15T14:01:51;4.60;;;3.35;;
58528;SDS011;44322;52.968;5.816;2022-11-15T14:04:18;7.15;;;3.72;;
58528;SDS011;44322;52.968;5.816;2022-11-15T14:06:52;5.78;;;3.65;;
58528;SDS011;44322;52.968;5.816;2022-11-15T14:12:20;7.38;;;3.30;;
58528;SDS011;44322;52.968;5.816;2022-11-15T14:14:52;5.22;;;3.53;;
58528;SDS011;44322;52.968;5.816;2022-11-15T14:17:33;5.10;;;3.42;;
58528;SDS011;44322;52.968;5.816;2022-11-15T14:20:01;4.78;;;3.10;;
58528;SDS011;44322;52.968;5.816;2022-11-15T14:22:29;3.88;;;2.90;;
58528;SDS011;44322;52.968;5.816;2022-11-15T14:25:07;5.40;;;3.03;;
58528;SDS011;44322;52.968;5.816;2022-11-15T14:27:33;5.32;;;2.85;;
58528;SDS011;44322;52.968;5.816;2022-11-15T14:29:59;6.93;;;2.80;;
58528;SDS011;44322;52.968;5.816;2022-11-15T14:32:27;3.35;;;2.65;;
58528;SDS011;44322;52.968;5.816;2022-11-15T14:34:55;3.13;;;2.30;;
58528;SDS011;44322;52.968;5.816;2022-11-15T14:37:27;4.05;;;2.70;;
58528;SDS011;44322;52.968;5.816;2022-11-15T14:39:59;4.45;;;2.60;;
58528;SDS011;44322;52.968;5.816;2022-11-15T14:42:26;2.90;;;2.43;;
58528;SDS011;44322;52.968;5.816;2022-11-15T14:44:53;4.40;;;2.17;;
58528;SDS011;44322;52.968;5.816;2022-11-15T14:47:22;4.65;;;2.50;;
58528;SDS011;44322;52.968;5.816;2022-11-15T14:49:47;6.65;;;2.67;;
58528;SDS011;44322;52.968;5.816;2022-11-15T14:52:23;4.63;;;2.50;;
58528;SDS011;44322;52.968;5.816;2022-11-15T14:54:52;4.60;;;2.30;;
58528;SDS011;44322;52.968;5.816;2022-11-15T14:57:17;3.80;;;2.60;;
58528;SDS011;44322;52.968;5.816;2022-11-15T14:59:43;2.97;;;2.20;;
58528;SDS011;44322;52.968;5.816;2022-11-15T15:02:22;4.15;;;2.35;;
58528;SDS011;44322;52.968;5.816;2022-11-15T15:04:52;4.60;;;2.13;;
58528;SDS011;44322;52.968;5.816;2022-11-15T15:07:18;2.83;;;1.88;;
58528;SDS011;44322;52.968;5.816;2022-11-15T15:09:45;2.30;;;2.08;;
58528;SDS011;44322;52.968;5.816;2022-11-15T15:12:18;4.57;;;1.98;;
58528;SDS011;44322;52.968;5.816;2022-11-15T15:14:46;4.88;;;2.10;;
58528;SDS011;44322;52.968;5.816;2022-11-15T15:17:13;3.13;;;2.10;;
58528;SDS011;44322;52.968;5.816;2022-11-15T15:19:39;4.30;;;1.95;;
58528;SDS011;44322;52.968;5.816;2022-11-15T15:22:05;3.05;;;2.15;;
58528;SDS011;44322;52.968;5.816;2022-11-15T15:24:34;4.28;;;1.95;;
58528;SDS011;44322;52.968;5.816;2022-11-15T15:27:00;2.83;;;1.85;;
58528;SDS011;44322;52.968;5.816;2022-11-15T15:29:26;3.80;;;2.47;;
58528;SDS011;44322;52.968;5.816;2022-11-15T15:31:51;3.03;;;1.90;;
58528;SDS011;44322;52.968;5.816;2022-11-15T15:34:20;5.95;;;2.20;;
58528;SDS011;44322;52.968;5.816;2022-11-15T15:36:46;4.68;;;2.58;;
58528;SDS011;44322;52.968;5.816;2022-11-15T15:39:12;4.20;;;2.10;;
58528;SDS011;44322;52.968;5.816;2022-11-15T15:41:37;2.42;;;1.70;;
58528;SDS011;44322;52.968;5.816;2022-11-15T15:44:03;5.20;;;2.60;;
58528;SDS011;44322;52.968;5.816;2022-11-15T15:46:29;4.20;;;2.22;;
58528;SDS011;44322;52.968;5.816;2022-11-15T15:48:55;4.43;;;2.15;;
58528;SDS011;44322;52.968;5.816;2022-11-15T15:51:21;2.70;;;1.98;;
58528;SDS011;44322;52.968;5.816;2022-11-15T15:53:47;3.38;;;2.58;;
58528;SDS011;44322;52.968;5.816;2022-11-15T15:56:13;4.57;;;2.53;;
58528;SDS011;44322;52.968;5.816;2022-11-15T15:58:39;3.55;;;2.10;;
58528;SDS011;44322;52.968;5.816;2022-11-15T16:01:05;2.88;;;2.30;;
58528;SDS011;44322;52.968;5.816;2022-11-15T16:03:31;4.55;;;3.03;;
58528;SDS011;44322;52.968;5.816;2022-11-15T16:05:57;4.38;;;3.05;;
58528;SDS011;44322;52.968;5.816;2022-11-15T16:08:23;4.20;;;2.88;;
58528;SDS011;44322;52.968;5.816;2022-11-15T16:10:51;5.68;;;3.20;;
58528;SDS011;44322;52.968;5.816;2022-11-15T16:13:17;6.20;;;3.35;;
58528;SDS011;44322;52.968;5.816;2022-11-15T16:15:43;6.85;;;3.40;;
58528;SDS011;44322;52.968;5.816;2022-11-15T16:18:15;4.90;;;3.35;;
58528;SDS011;44322;52.968;5.816;2022-11-15T16:20:45;5.03;;;3.50;;
58528;SDS011;44322;52.968;5.816;2022-11-15T16:23:15;6.78;;;3.47;;
58528;SDS011;44322;52.968;5.816;2022-11-15T16:25:50;5.90;;;3.90;;
58528;SDS011;44322;52.968;5.816;2022-11-15T16:28:28;7.43;;;3.78;;
58528;SDS011;44322;52.968;5.816;2022-11-15T16:31:04;6.82;;;4.13;;
58528;SDS011;44322;52.968;5.816;2022-11-15T16:33:32;6.68;;;4.10;;
58528;SDS011;44322;52.968;5.816;2022-11-15T16:35:58;5.28;;;3.63;;
58528;SDS011;44322;52.968;5.816;2022-11-15T16:38:24;5.20;;;3.42;;
58528;SDS011;44322;52.968;5.816;2022-11-15T16:40:58;5.82;;;4.07;;
58528;SDS011;44322;52.968;5.816;2022-11-15T16:43:25;6.32;;;3.90;;
58528;SDS011;44322;52.968;5.816;2022-11-15T16:45:51;7.38;;;3.80;;
58528;SDS011;44322;52.968;5.816;2022-11-15T16:48:21;4.88;;;3.63;;
58528;SDS011;44322;52.968;5.816;2022-11-15T16:50:55;4.80;;;3.78;;
58528;SDS011;44322;52.968;5.816;2022-11-15T16:53:22;5.22;;;3.72;;
58528;SDS011;44322;52.968;5.816;2022-11-15T16:55:49;7.85;;;4.07;;
58528;SDS011;44322;52.968;5.816;2022-11-15T16:58:14;4.82;;;3.88;;
58528;SDS011;44322;52.968;5.816;2022-11-15T17:00:40;4.53;;;3.35;;
58528;SDS011;44322;52.968;5.816;2022-11-15T17:03:06;5.10;;;3.90;;
58528;SDS011;44322;52.968;5.816;2022-11-15T17:05:32;8.13;;;3.88;;
58528;SDS011;44322;52.968;5.816;2022-11-15T17:07:58;4.60;;;3.53;;
58528;SDS011;44322;52.968;5.816;2022-11-15T17:10:24;5.00;;;3.60;;
58528;SDS011;44322;52.968;5.816;2022-11-15T17:12:51;8.80;;;3.97;;
58528;SDS011;44322;52.968;5.816;2022-11-15T17:15:19;4.57;;;3.25;;
58528;SDS011;44322;52.968;5.816;2022-11-15T17:17:50;4.88;;;3.50;;
58528;SDS011;44322;52.968;5.816;2022-11-15T17:20:21;4.78;;;3.20;;
58528;SDS011;44322;52.968;5.816;2022-11-15T17:22:48;6.72;;;3.08;;
58528;SDS011;44322;52.968;5.816;2022-11-15T17:25:14;7.28;;;3.33;;
58528;SDS011;44322;52.968;5.816;2022-11-15T17:27:40;4.47;;;2.95;;
58528;SDS011;44322;52.968;5.816;2022-11-15T17:30:07;4.03;;;2.45;;
58528;SDS011;44322;52.968;5.816;2022-11-15T17:32:36;4.13;;;2.65;;
58528;SDS011;44322;52.968;5.816;2022-11-15T17:35:03;4.20;;;2.20;;
58528;SDS011;44322;52.968;5.816;2022-11-15T17:37:31;4.22;;;2.55;;
58528;SDS011;44322;52.968;5.816;2022-11-15T17:39:58;4.10;;;2.10;;
58528;SDS011;44322;52.968;5.816;2022-11-15T17:42:24;3.42;;;2.22;;
58528;SDS011;44322;52.968;5.816;2022-11-15T17:44:50;3.85;;;2.22;;
58528;SDS011;44322;52.968;5.816;2022-11-15T17:47:16;4.25;;;2.25;;
58528;SDS011;44322;52.968;5.816;2022-11-15T17:49:41;6.00;;;2.03;;
58528;SDS011;44322;52.968;5.816;2022-11-15T17:52:08;2.95;;;2.10;;
58528;SDS011;44322;52.968;5.816;2022-11-15T17:54:34;5.57;;;2.33;;
58528;SDS011;44322;52.968;5.816;2022-11-15T17:57:00;3.10;;;1.92;;
58528;SDS011;44322;52.968;5.816;2022-11-15T17:59:26;3.30;;;1.85;;
58528;SDS011;44322;52.968;5.816;2022-11-15T18:01:52;2.22;;;1.77;;
58528;SDS011;44322;52.968;5.816;2022-11-15T18:04:18;2.70;;;1.88;;
58528;SDS011;44322;52.968;5.816;2022-11-15T18:06:44;3.72;;;1.75;;
58528;SDS011;44322;52.968;5.816;2022-11-15T18:09:10;3.05;;;2.00;;
58528;SDS011;44322;52.968;5.816;2022-11-15T18:11:38;3.38;;;2.17;;
58528;SDS011;44322;52.968;5.816;2022-11-15T18:14:11;1.95;;;1.75;;
58528;SDS011;44322;52.968;5.816;2022-11-15T18:16:39;3.17;;;2.00;;
58528;SDS011;44322;52.968;5.816;2022-11-15T18:19:05;3.97;;;1.77;;
58528;SDS011;44322;52.968;5.816;2022-11-15T18:25:50;5.20;;;2.25;;
58528;SDS011;44322;52.968;5.816;2022-11-15T18:28:19;3.53;;;1.92;;
58528;SDS011;44322;52.968;5.816;2022-11-15T18:30:45;4.38;;;1.92;;